Time;durP1;ratioP1;P1;durP2;ratioP2;P2;SDS_P1;SDS_P2;PMS_P1;PMS_P2;Temp;Humidity;BMP_temperature;BMP_pressure;BME280_temperature;BME280_humidity;BME280_pressure;Samples;Min_cycle;Max_cycle;Signal;HPM_P1;HPM_P2
2021/10/24 00:02:21;;;;;;;15.65;12.95;;;8.20;99.90;;;;;;5034597;28;20022;-83
2021/10/24 00:04:47;;;;;;;24.23;15.93;;;8.20;99.90;;;;;;5034546;28;20021;-83
2021/10/24 00:07:13;;;;;;;16.92;13.07;;;8.20;99.90;;;;;;5033789;28;20108;-83
2021/10/24 00:09:39;;;;;;;21.05;13.27;;;8.20;99.90;;;;;;5034796;28;20485;-83
2021/10/24 00:12:05;;;;;;;19.58;14.60;;;8.20;99.90;;;;;;5034440;28;20057;-83
2021/10/24 00:14:30;;;;;;;18.85;12.70;;;8.20;99.90;;;;;;5035031;28;20026;-83
2021/10/24 00:16:56;;;;;;;18.55;12.48;;;8.20;99.90;;;;;;5034526;28;20067;-83
2021/10/24 00:19:22;;;;;;;19.45;12.98;;;8.20;99.90;;;;;;5035007;28;20242;-83
2021/10/24 00:21:47;;;;;;;19.52;13.25;;;8.20;99.90;;;;;;5035474;28;20456;-83
2021/10/24 00:24:13;;;;;;;15.02;12.27;;;8.20;99.90;;;;;;5034324;28;20022;-82
2021/10/24 00:26:39;;;;;;;18.52;13.05;;;8.20;99.90;;;;;;5034615;28;20060;-83
2021/10/24 00:29:04;;;;;;;14.38;12.40;;;8.20;99.90;;;;;;5034774;28;20033;-83
2021/10/24 00:31:30;;;;;;;21.45;13.98;;;8.10;99.90;;;;;;5032728;28;20572;-82
2021/10/24 00:33:57;;;;;;;17.50;13.77;;;8.10;99.90;;;;;;5034464;28;20159;-83
2021/10/24 00:36:23;;;;;;;19.48;12.48;;;8.10;99.90;;;;;;5033988;28;20038;-83
2021/10/24 00:38:48;;;;;;;23.27;14.13;;;8.00;99.90;;;;;;5033791;28;20029;-83
2021/10/24 00:41:15;;;;;;;20.23;12.95;;;7.90;99.90;;;;;;5034698;28;20436;-82
2021/10/24 00:43:40;;;;;;;20.45;14.13;;;7.90;99.90;;;;;;5034813;28;20104;-83
2021/10/24 00:46:06;;;;;;;16.60;12.45;;;7.80;99.90;;;;;;5032846;28;20136;-83
2021/10/24 00:48:31;;;;;;;18.15;13.65;;;7.80;99.90;;;;;;5036831;28;20057;-83
2021/10/24 00:50:57;;;;;;;18.10;12.75;;;7.70;99.90;;;;;;5034000;28;20534;-83
2021/10/24 00:53:23;;;;;;;16.63;12.57;;;7.70;99.90;;;;;;5033877;28;20045;-82
2021/10/24 00:55:49;;;;;;;18.27;13.75;;;7.60;99.90;;;;;;5038972;28;20021;-83
2021/10/24 00:58:16;;;;;;;17.75;13.18;;;7.60;99.90;;;;;;5035614;28;20029;-82
2021/10/24 01:00:42;;;;;;;18.02;13.90;;;7.60;99.90;;;;;;5033773;28;20112;-83
2021/10/24 01:03:08;;;;;;;19.45;13.40;;;7.60;99.90;;;;;;5033002;28;20057;-82
2021/10/24 01:05:36;;;;;;;16.42;13.18;;;7.60;99.90;;;;;;5033432;28;20053;-83
2021/10/24 01:08:02;;;;;;;17.83;12.77;;;7.60;99.90;;;;;;5033685;28;20075;-82
2021/10/24 01:10:28;;;;;;;14.15;11.88;;;7.50;99.90;;;;;;5033581;28;20045;-83
2021/10/24 01:12:53;;;;;;;28.25;13.55;;;7.40;99.90;;;;;;5033441;28;20017;-83
2021/10/24 01:15:22;;;;;;;18.98;14.05;;;7.40;99.90;;;;;;5033845;28;20025;-83
2021/10/24 01:17:48;;;;;;;23.10;13.50;;;7.30;99.90;;;;;;5035061;28;20037;-82
2021/10/24 01:20:19;;;;;;;23.30;13.30;;;7.20;99.90;;;;;;5033227;28;20473;-82
2021/10/24 01:22:45;;;;;;;16.52;12.48;;;7.20;99.90;;;;;;5034119;28;20032;-82
2021/10/24 01:25:11;;;;;;;18.80;12.70;;;7.10;99.90;;;;;;5033422;28;20060;-82
2021/10/24 01:27:37;;;;;;;18.15;12.52;;;7.00;99.90;;;;;;5033389;28;20057;-82
2021/10/24 01:30:07;;;;;;;19.15;12.95;;;6.90;99.90;;;;;;5033323;28;20544;-84
2021/10/24 01:32:33;;;;;;;19.02;13.50;;;6.90;99.90;;;;;;5033620;28;20042;-83
2021/10/24 01:34:59;;;;;;;16.95;14.15;;;6.80;99.90;;;;;;5032890;28;20040;-82
2021/10/24 01:37:32;;;;;;;19.38;13.75;;;6.80;99.90;;;;;;5032968;28;20416;-83
2021/10/24 01:39:59;;;;;;;24.08;14.35;;;6.70;99.90;;;;;;5034257;28;20052;-82
2021/10/24 01:42:25;;;;;;;24.90;13.23;;;6.70;99.90;;;;;;5032113;28;20068;-82
2021/10/24 01:44:51;;;;;;;24.80;13.73;;;6.60;99.90;;;;;;5032909;28;20033;-83
2021/10/24 01:47:16;;;;;;;21.02;14.52;;;6.60;99.90;;;;;;5036156;28;20021;-82
2021/10/24 01:49:42;;;;;;;19.73;13.90;;;6.50;99.90;;;;;;5034769;28;20037;-83
2021/10/24 01:52:08;;;;;;;19.92;13.18;;;6.50;99.90;;;;;;5033657;28;20029;-82
2021/10/24 01:54:33;;;;;;;16.45;13.18;;;6.50;99.90;;;;;;5034049;28;20049;-82
2021/10/24 01:56:59;;;;;;;22.35;14.15;;;6.50;99.90;;;;;;5038609;28;20028;-83
2021/10/24 01:59:25;;;;;;;15.82;12.85;;;6.40;99.90;;;;;;5033831;28;20031;-83
2021/10/24 02:01:50;;;;;;;19.60;15.13;;;6.40;99.90;;;;;;5039726;28;20029;-82
2021/10/24 02:04:16;;;;;;;21.38;14.32;;;6.40;99.90;;;;;;5034219;28;20025;-83
2021/10/24 02:06:41;;;;;;;21.13;13.15;;;6.40;99.90;;;;;;5036643;28;20025;-83
2021/10/24 02:09:07;;;;;;;22.63;14.48;;;6.30;99.90;;;;;;5034279;28;20022;-82
2021/10/24 02:11:33;;;;;;;26.88;14.70;;;6.30;99.90;;;;;;5036071;28;20087;-82
2021/10/24 02:13:58;;;;;;;20.23;13.43;;;6.30;99.90;;;;;;5036186;28;20025;-82
2021/10/24 02:16:24;;;;;;;19.35;13.55;;;6.30;99.90;;;;;;5023738;28;20029;-83
2021/10/24 02:18:50;;;;;;;20.25;14.15;;;6.20;99.90;;;;;;5036921;28;20381;-83
2021/10/24 02:21:15;;;;;;;18.08;13.20;;;6.20;99.90;;;;;;5037299;28;20025;-83
2021/10/24 02:23:41;;;;;;;16.40;13.38;;;6.20;99.90;;;;;;5036063;28;20024;-83
2021/10/24 02:26:07;;;;;;;17.05;13.55;;;6.20;99.90;;;;;;5035799;28;20478;-82
2021/10/24 02:28:32;;;;;;;22.30;13.35;;;6.20;99.90;;;;;;5036254;28;20057;-84
2021/10/24 02:30:58;;;;;;;19.92;13.73;;;6.10;99.90;;;;;;5036063;28;20091;-83
2021/10/24 02:33:24;;;;;;;19.33;12.77;;;6.10;99.90;;;;;;5035843;28;20045;-83
2021/10/24 02:35:49;;;;;;;19.55;14.40;;;6.10;99.90;;;;;;5036151;28;20030;-83
2021/10/24 02:38:15;;;;;;;17.45;13.25;;;6.00;99.90;;;;;;5037720;28;20584;-83
2021/10/24 02:40:43;;;;;;;22.58;13.85;;;6.00;99.90;;;;;;5035983;28;20386;-82
2021/10/24 02:43:08;;;;;;;20.80;12.60;;;6.00;99.90;;;;;;5035884;28;20056;-82
2021/10/24 02:45:36;;;;;;;16.25;13.27;;;6.00;99.90;;;;;;5035460;28;20607;-82
2021/10/24 02:48:04;;;;;;;19.08;13.30;;;6.00;99.90;;;;;;5036187;28;20029;-83
2021/10/24 02:50:30;;;;;;;21.67;13.45;;;6.00;99.90;;;;;;5034883;28;20093;-83
2021/10/24 02:52:55;;;;;;;21.23;13.82;;;6.00;99.90;;;;;;5039448;28;20053;-83
2021/10/24 02:55:21;;;;;;;15.02;12.90;;;5.90;99.90;;;;;;5035362;28;20029;-83
2021/10/24 02:57:47;;;;;;;17.80;13.15;;;5.90;99.90;;;;;;5035959;28;20018;-83
2021/10/24 03:00:13;;;;;;;17.63;13.00;;;5.90;99.90;;;;;;5036200;28;20072;-83
2021/10/24 03:02:39;;;;;;;13.13;11.77;;;5.80;99.90;;;;;;5023064;28;20028;-84
2021/10/24 03:05:06;;;;;;;25.13;12.90;;;5.80;99.90;;;;;;5036344;28;20029;-82
2021/10/24 03:07:32;;;;;;;18.63;13.05;;;5.80;99.90;;;;;;5022050;28;20078;-81
2021/10/24 03:09:57;;;;;;;18.45;13.10;;;5.80;99.90;;;;;;5024318;28;20029;-84
2021/10/24 03:12:23;;;;;;;24.45;12.35;;;5.80;99.90;;;;;;5035798;28;20034;-84
2021/10/24 03:14:48;;;;;;;16.88;13.50;;;5.70;99.90;;;;;;5035164;28;20040;-84
2021/10/24 03:17:14;;;;;;;16.38;12.82;;;5.70;99.90;;;;;;5034827;28;20017;-83
2021/10/24 03:19:41;;;;;;;20.52;12.27;;;5.70;99.90;;;;;;5035891;28;20503;-83
2021/10/24 03:22:07;;;;;;;14.30;11.90;;;5.70;99.90;;;;;;5037773;28;20077;-83
2021/10/24 03:24:32;;;;;;;18.73;12.88;;;5.70;99.90;;;;;;5035751;28;20049;-83
2021/10/24 03:26:58;;;;;;;16.90;13.30;;;5.60;99.90;;;;;;5034055;28;20099;-83
2021/10/24 03:29:23;;;;;;;19.58;13.82;;;5.60;99.90;;;;;;5034033;28;20025;-83
2021/10/24 03:31:49;;;;;;;17.58;12.55;;;5.60;99.90;;;;;;5034121;28;20041;-83
2021/10/24 03:34:15;;;;;;;19.40;13.48;;;5.60;99.90;;;;;;5034159;28;20032;-83
2021/10/24 03:36:41;;;;;;;20.02;13.60;;;5.60;99.90;;;;;;5035360;28;20052;-83
2021/10/24 03:39:06;;;;;;;19.48;13.07;;;5.60;99.90;;;;;;5035223;28;20439;-82
2021/10/24 03:41:32;;;;;;;17.58;13.18;;;5.60;99.90;;;;;;5035203;28;20029;-83
2021/10/24 03:43:57;;;;;;;21.55;14.50;;;5.50;99.90;;;;;;5034283;28;20033;-84
2021/10/24 03:46:23;;;;;;;19.50;13.45;;;5.60;99.90;;;;;;5035301;28;20025;-82
2021/10/24 03:48:48;;;;;;;20.63;13.32;;;5.50;99.90;;;;;;5037336;28;20059;-82
2021/10/24 03:51:14;;;;;;;15.60;13.23;;;5.50;99.90;;;;;;5040683;28;20033;-83
2021/10/24 03:53:39;;;;;;;17.40;12.50;;;5.50;99.90;;;;;;5034734;28;20028;-83
2021/10/24 03:56:05;;;;;;;22.63;13.15;;;5.50;99.90;;;;;;5034493;28;20067;-82
2021/10/24 03:58:31;;;;;;;17.95;12.48;;;5.50;99.90;;;;;;5034106;28;20485;-83
2021/10/24 04:00:57;;;;;;;17.85;12.55;;;5.50;99.90;;;;;;5041106;28;20052;-83
2021/10/24 04:03:22;;;;;;;16.52;13.13;;;5.50;99.90;;;;;;5035846;28;20524;-83
2021/10/24 04:05:49;;;;;;;18.75;13.48;;;5.40;99.90;;;;;;5043741;28;20029;-83
2021/10/24 04:08:16;;;;;;;20.20;13.00;;;5.40;99.90;;;;;;5035319;28;20089;-83
2021/10/24 04:10:42;;;;;;;23.20;12.88;;;5.40;99.90;;;;;;5034891;28;20037;-83
2021/10/24 04:13:07;;;;;;;20.83;13.55;;;5.40;99.90;;;;;;5034573;28;20081;-82
2021/10/24 04:15:33;;;;;;;18.80;13.48;;;5.40;99.90;;;;;;5034738;28;20029;-83
2021/10/24 04:17:59;;;;;;;19.75;14.23;;;5.40;99.90;;;;;;5033750;28;20022;-82
2021/10/24 04:20:24;;;;;;;19.75;14.10;;;5.40;99.90;;;;;;5034499;28;20074;-83
2021/10/24 04:22:51;;;;;;;19.33;13.48;;;5.40;99.90;;;;;;5034659;28;20029;-84
2021/10/24 04:25:17;;;;;;;18.60;13.50;;;5.40;99.90;;;;;;5033825;28;20172;-83
2021/10/24 04:27:46;;;;;;;20.63;14.25;;;5.30;99.90;;;;;;5035115;28;20030;-83
2021/10/24 04:30:12;;;;;;;19.00;13.25;;;5.30;99.90;;;;;;5033502;28;20071;-83
2021/10/24 04:32:41;;;;;;;24.45;13.95;;;5.30;99.90;;;;;;5034283;28;20128;-83
2021/10/24 04:35:07;;;;;;;19.08;13.48;;;5.30;99.90;;;;;;5034499;28;20036;-83
2021/10/24 04:37:33;;;;;;;21.13;12.60;;;5.30;99.90;;;;;;5033120;28;20377;-82
2021/10/24 04:39:58;;;;;;;23.48;15.88;;;5.30;99.90;;;;;;5034183;28;20026;-83
2021/10/24 04:42:24;;;;;;;21.17;13.75;;;5.30;99.90;;;;;;5034558;28;20044;-84
2021/10/24 04:44:52;;;;;;;22.65;14.00;;;5.20;99.90;;;;;;5033130;28;20084;-84
2021/10/24 04:47:18;;;;;;;22.70;15.10;;;5.30;99.90;;;;;;5033534;28;20029;-83
2021/10/24 04:49:44;;;;;;;19.90;14.45;;;5.30;99.90;;;;;;5034464;28;20103;-82
2021/10/24 04:52:12;;;;;;;19.02;14.10;;;5.20;99.90;;;;;;5032384;28;20092;-83
2021/10/24 04:54:38;;;;;;;19.27;13.18;;;5.20;99.90;;;;;;5025118;28;20026;-84
2021/10/24 04:57:03;;;;;;;25.08;14.07;;;5.20;99.90;;;;;;5027950;28;20033;-83
2021/10/24 04:59:29;;;;;;;21.23;14.82;;;5.20;99.90;;;;;;5032525;28;20033;-83
2021/10/24 05:01:54;;;;;;;21.55;13.90;;;5.20;99.90;;;;;;5033633;28;20044;-82
2021/10/24 05:04:21;;;;;;;22.85;14.90;;;5.20;99.90;;;;;;5033372;28;20119;-84
2021/10/24 05:06:46;;;;;;;19.65;13.02;;;5.20;99.90;;;;;;5033124;28;20022;-83
2021/10/24 05:09:12;;;;;;;25.23;14.10;;;5.10;99.90;;;;;;5033618;28;20405;-83
2021/10/24 05:11:38;;;;;;;23.15;13.85;;;5.10;99.90;;;;;;5033724;28;20034;-84
2021/10/24 05:14:04;;;;;;;19.52;13.55;;;5.10;99.90;;;;;;5033446;28;20025;-83
2021/10/24 05:16:30;;;;;;;19.13;12.95;;;5.10;99.90;;;;;;5033191;28;20165;-83
2021/10/24 05:18:56;;;;;;;22.77;15.05;;;5.10;99.90;;;;;;5033278;28;20386;-83
2021/10/24 05:21:21;;;;;;;24.58;14.05;;;5.10;99.90;;;;;;5032977;28;20029;-83
2021/10/24 05:23:47;;;;;;;20.27;13.75;;;5.00;99.90;;;;;;5032922;28;20018;-83
2021/10/24 05:26:13;;;;;;;18.88;14.73;;;5.10;99.90;;;;;;5032243;28;20448;-83
2021/10/24 05:28:38;;;;;;;19.73;14.23;;;5.10;99.90;;;;;;5029392;28;20030;-83
2021/10/24 05:31:04;;;;;;;20.67;14.13;;;5.00;99.90;;;;;;5027427;28;20072;-82
2021/10/24 05:33:29;;;;;;;21.60;14.13;;;5.00;99.90;;;;;;5026789;28;20080;-83
2021/10/24 05:35:55;;;;;;;20.10;14.80;;;5.00;99.90;;;;;;4997655;28;20470;-84
2021/10/24 05:38:22;;;;;;;22.52;13.95;;;5.00;99.90;;;;;;5031243;28;20053;-83
2021/10/24 05:40:48;;;;;;;17.52;13.65;;;5.00;99.90;;;;;;5016450;28;20018;-81
2021/10/24 05:43:14;;;;;;;17.30;13.57;;;5.00;99.90;;;;;;5025728;28;20025;-83
2021/10/24 05:45:44;;;;;;;19.30;13.35;;;5.00;99.90;;;;;;5030843;28;20356;-83
2021/10/24 05:48:10;;;;;;;23.30;14.13;;;4.90;99.90;;;;;;5013264;28;20108;-82
2021/10/24 05:50:36;;;;;;;18.75;13.68;;;4.90;99.90;;;;;;5026914;28;20053;-84
2021/10/24 05:53:01;;;;;;;19.10;12.95;;;4.90;99.90;;;;;;5026685;28;20488;-82
2021/10/24 05:55:27;;;;;;;20.50;13.68;;;4.90;99.90;;;;;;5022550;28;20030;-82
2021/10/24 05:57:52;;;;;;;19.00;13.88;;;4.90;99.90;;;;;;5031325;28;20120;-83
2021/10/24 06:00:18;;;;;;;23.45;13.45;;;4.90;99.90;;;;;;5022299;28;20038;-83
2021/10/24 06:02:43;;;;;;;18.35;13.32;;;4.90;99.90;;;;;;5032474;28;20022;-82
2021/10/24 06:05:12;;;;;;;15.55;12.45;;;4.80;99.90;;;;;;5029892;28;20022;-83
2021/10/24 06:07:37;;;;;;;19.13;13.68;;;4.80;99.90;;;;;;5027468;28;20066;-82
2021/10/24 06:10:17;;;;;;;25.10;14.02;;;4.80;99.90;;;;;;5024953;28;20377;-82
2021/10/24 06:12:46;;;;;;;18.77;13.13;;;4.80;99.90;;;;;;5024350;28;20083;-82
2021/10/24 06:15:17;;;;;;;19.38;13.95;;;4.80;99.90;;;;;;5010443;28;20124;-82
2021/10/24 06:17:47;;;;;;;21.15;12.63;;;4.80;99.90;;;;;;5030339;28;20033;-84
2021/10/24 06:20:14;;;;;;;20.33;13.30;;;4.80;99.90;;;;;;5021585;28;20022;-83
2021/10/24 06:22:40;;;;;;;15.05;12.25;;;4.80;99.90;;;;;;5025991;28;20501;-83
2021/10/24 06:25:10;;;;;;;19.60;12.98;;;4.80;99.90;;;;;;5029713;28;20029;-81
2021/10/24 06:27:40;;;;;;;23.10;11.98;;;4.80;99.90;;;;;;5023714;28;20029;-82
2021/10/24 06:30:08;;;;;;;18.43;11.73;;;4.70;99.90;;;;;;5025576;28;20046;-83
2021/10/24 06:32:35;;;;;;;20.55;12.35;;;4.80;99.90;;;;;;5033292;28;20562;-83
2021/10/24 06:35:01;;;;;;;18.55;13.13;;;4.80;99.90;;;;;;5024681;28;20029;-82
2021/10/24 06:37:30;;;;;;;18.58;13.70;;;4.80;99.90;;;;;;5026252;28;20516;-82
2021/10/24 06:39:56;;;;;;;15.27;11.95;;;4.80;99.90;;;;;;5030873;28;20116;-82
2021/10/24 06:42:24;;;;;;;17.73;12.38;;;4.80;99.90;;;;;;5027927;28;20100;-81
2021/10/24 06:44:49;;;;;;;14.82;11.85;;;4.80;99.90;;;;;;5031608;28;20473;-81
2021/10/24 06:47:15;;;;;;;15.32;12.40;;;4.80;99.90;;;;;;5026757;28;20040;-82
2021/10/24 06:49:40;;;;;;;17.70;12.23;;;4.80;99.90;;;;;;5025333;28;20028;-84
2021/10/24 06:52:08;;;;;;;19.08;12.57;;;4.90;99.90;;;;;;5025082;28;20071;-83
2021/10/24 06:54:34;;;;;;;19.08;12.80;;;4.90;99.90;;;;;;5023975;28;20017;-82
2021/10/24 06:57:00;;;;;;;17.55;12.13;;;4.90;99.90;;;;;;5027769;28;20037;-82
2021/10/24 06:59:26;;;;;;;20.00;13.35;;;4.90;99.90;;;;;;5032557;28;20025;-82
2021/10/24 07:01:51;;;;;;;17.45;13.20;;;4.90;99.90;;;;;;5031935;28;20032;-83
2021/10/24 07:04:17;;;;;;;16.52;12.25;;;4.90;99.90;;;;;;5027863;28;20034;-83
2021/10/24 07:06:42;;;;;;;25.38;14.48;;;5.00;99.90;;;;;;5030995;28;20425;-85
2021/10/24 07:09:08;;;;;;;16.52;12.45;;;5.00;99.90;;;;;;5030807;28;20080;-85
2021/10/24 07:11:33;;;;;;;16.45;12.02;;;5.00;99.90;;;;;;5040464;28;20026;-84
2021/10/24 07:13:59;;;;;;;15.77;11.88;;;5.10;99.90;;;;;;5024565;28;20022;-86
2021/10/24 07:16:25;;;;;;;15.82;12.73;;;5.10;99.90;;;;;;5028859;28;20101;-86
2021/10/24 07:18:51;;;;;;;18.45;12.93;;;5.20;99.90;;;;;;5029490;28;20021;-84
2021/10/24 07:21:17;;;;;;;16.42;11.43;;;5.20;99.90;;;;;;5032136;28;20429;-87
2021/10/24 07:23:42;;;;;;;17.05;12.18;;;5.20;99.90;;;;;;5019224;28;20030;-85
2021/10/24 07:26:08;;;;;;;23.40;12.50;;;5.20;99.90;;;;;;5025666;28;20022;-83
2021/10/24 07:28:34;;;;;;;15.85;11.60;;;5.30;99.90;;;;;;5023501;28;20025;-78
2021/10/24 07:30:59;;;;;;;17.67;13.07;;;5.30;99.90;;;;;;5025184;28;20083;-79
2021/10/24 07:33:25;;;;;;;18.92;12.65;;;5.40;99.90;;;;;;5026846;28;20053;-79
2021/10/24 07:35:51;;;;;;;17.23;12.57;;;6.60;99.90;;;;;;5023432;28;20041;-79
2021/10/24 07:38:17;;;;;;;16.40;12.43;;;5.50;99.90;;;;;;5027726;28;20117;-79
2021/10/24 07:40:49;;;;;;;21.58;12.68;;;5.60;99.90;;;;;;5025445;28;20477;-78
2021/10/24 07:43:19;;;;;;;19.75;13.63;;;5.60;99.90;;;;;;5021595;28;20028;-79
2021/10/24 07:45:49;;;;;;;22.38;10.93;;;5.60;99.90;;;;;;5024248;28;20436;-78
2021/10/24 07:48:16;;;;;;;16.90;10.93;;;5.70;99.90;;;;;;5020757;28;20026;-81
2021/10/24 07:50:45;;;;;;;17.75;12.13;;;5.80;99.90;;;;;;5024701;28;20076;-80
2021/10/24 07:53:11;;;;;;;15.73;10.90;;;5.80;99.90;;;;;;5019995;28;20381;-79
2021/10/24 07:55:36;;;;;;;18.90;11.75;;;5.90;99.90;;;;;;5028665;28;20033;-79
2021/10/24 07:58:02;;;;;;;15.63;11.98;;;6.00;99.90;;;;;;5027155;28;20439;-80
2021/10/24 08:00:29;;;;;;;15.18;11.32;;;6.10;99.90;;;;;;5023929;28;20026;-78
2021/10/24 08:02:54;;;;;;;16.05;11.55;;;6.10;99.90;;;;;;5027414;28;20029;-80
2021/10/24 08:05:20;;;;;;;16.77;11.38;;;6.20;99.90;;;;;;5024783;28;20512;-80
2021/10/24 08:07:46;;;;;;;19.85;11.63;;;6.20;99.90;;;;;;5020229;28;20029;-80
2021/10/24 08:10:12;;;;;;;13.40;10.85;;;6.30;99.90;;;;;;5029132;28;20037;-81
2021/10/24 08:12:39;;;;;;;16.40;10.65;;;6.40;99.90;;;;;;5023923;28;20535;-80
2021/10/24 08:15:06;;;;;;;12.90;9.80;;;6.50;99.90;;;;;;5026248;28;20048;-81
2021/10/24 08:17:32;;;;;;;18.38;10.75;;;6.50;99.90;;;;;;5028212;28;20095;-79
2021/10/24 08:19:57;;;;;;;14.52;10.70;;;6.60;99.90;;;;;;5025271;28;20489;-79
2021/10/24 08:22:24;;;;;;;13.82;10.52;;;6.60;99.90;;;;;;5023840;28;20037;-79
2021/10/24 08:24:50;;;;;;;15.65;9.77;;;6.70;99.90;;;;;;5026350;28;20480;-76
2021/10/24 08:27:16;;;;;;;16.67;10.10;;;6.70;99.90;;;;;;5026025;28;20029;-77
2021/10/24 08:29:42;;;;;;;14.68;9.68;;;6.80;99.90;;;;;;5020937;28;20044;-77
2021/10/24 08:32:11;;;;;;;16.13;9.70;;;6.80;99.90;;;;;;5026197;28;20041;-82
2021/10/24 08:34:38;;;;;;;15.73;9.90;;;6.90;99.90;;;;;;5016887;28;20029;-76
2021/10/24 08:37:05;;;;;;;16.70;9.32;;;7.00;99.90;;;;;;5019589;28;20030;-77
2021/10/24 08:39:31;;;;;;;12.93;9.48;;;8.10;99.90;;;;;;5021271;28;20030;-79
2021/10/24 08:41:57;;;;;;;11.50;9.23;;;7.10;99.90;;;;;;5022032;28;20112;-79
2021/10/24 08:44:24;;;;;;;15.75;8.52;;;7.10;99.90;;;;;;5021641;28;20116;-82
2021/10/24 08:46:50;;;;;;;12.77;8.77;;;7.30;99.90;;;;;;5033139;28;20021;-82
2021/10/24 08:49:16;;;;;;;14.80;8.80;;;7.30;99.90;;;;;;5019307;28;20485;-82
2021/10/24 08:51:42;;;;;;;10.98;8.68;;;7.30;99.90;;;;;;5023627;28;20488;-81
2021/10/24 08:54:08;;;;;;;17.42;10.70;;;7.40;99.90;;;;;;5026330;28;20033;-81
2021/10/24 08:56:34;;;;;;;10.52;8.57;;;7.50;99.90;;;;;;5024162;28;20108;-80
2021/10/24 08:59:01;;;;;;;15.52;10.15;;;7.50;99.90;;;;;;5005351;28;20017;-78
2021/10/24 09:01:27;;;;;;;10.60;8.15;;;7.60;99.90;;;;;;5024192;28;20344;-78
2021/10/24 09:04:12;;;;;;;8.50;7.65;;;7.70;99.90;;;;;;5023205;28;20029;-78
2021/10/24 09:06:47;;;;;;;14.70;8.27;;;7.80;99.90;;;;;;5023631;28;20112;-77
2021/10/24 09:09:15;;;;;;;19.50;8.43;;;7.80;99.90;;;;;;5023303;28;20040;-78
2021/10/24 09:12:02;;;;;;;12.50;7.43;;;7.90;99.90;;;;;;5025525;28;20033;-76
2021/10/24 09:14:41;;;;;;;8.48;7.50;;;8.00;99.90;;;;;;5022649;28;20033;-77
2021/10/24 09:17:09;;;;;;;12.05;7.93;;;8.10;99.90;;;;;;5023432;28;20311;-78
2021/10/24 09:19:49;;;;;;;11.77;7.88;;;8.20;99.90;;;;;;5024122;28;20485;-77
2021/10/24 09:22:36;;;;;;;14.43;7.35;;;8.20;99.90;;;;;;5025809;28;20033;-78
2021/10/24 09:25:19;;;;;;;11.25;7.70;;;8.30;99.90;;;;;;5023985;28;20025;-77
2021/10/24 09:27:57;;;;;;;10.48;7.45;;;8.30;99.90;;;;;;5023876;28;20030;-78
2021/10/24 09:30:36;;;;;;;10.00;6.75;;;8.40;99.90;;;;;;5022920;28;20034;-78
2021/10/24 09:33:12;;;;;;;10.68;6.90;;;8.50;99.90;;;;;;5022985;28;20041;-77
2021/10/24 09:36:01;;;;;;;9.02;7.18;;;8.50;99.90;;;;;;5025866;28;20026;-79
2021/10/24 09:38:29;;;;;;;10.93;7.68;;;8.60;99.90;;;;;;5024962;28;20373;-79
2021/10/24 09:40:57;;;;;;;10.25;7.35;;;8.60;99.90;;;;;;5025486;28;20112;-78
2021/10/24 09:43:28;;;;;;;8.45;7.50;;;8.70;99.90;;;;;;5025605;28;20026;-78
2021/10/24 09:45:56;;;;;;;8.32;7.25;;;8.80;99.90;;;;;;5024917;28;20460;-78
2021/10/24 09:48:24;;;;;;;8.85;6.70;;;8.90;99.90;;;;;;5020562;28;20025;-78
2021/10/24 09:50:56;;;;;;;11.43;7.28;;;9.00;99.90;;;;;;5024257;28;20112;-78
2021/10/24 09:53:31;;;;;;;10.85;6.35;;;9.00;99.90;;;;;;5025039;28;20088;-78
2021/10/24 09:55:56;;;;;;;9.27;7.15;;;9.10;99.90;;;;;;5023952;28;20034;-78
2021/10/24 09:58:23;;;;;;;8.00;7.13;;;9.10;99.90;;;;;;5025379;28;20030;-78
2021/10/24 10:00:49;;;;;;;11.07;7.30;;;9.20;99.90;;;;;;5024951;28;20033;-78
2021/10/24 10:03:15;;;;;;;9.93;7.20;;;9.20;99.90;;;;;;5024459;28;20148;-77
2021/10/24 10:05:41;;;;;;;8.63;6.90;;;9.30;99.90;;;;;;5023584;28;20026;-78
2021/10/24 10:08:09;;;;;;;8.15;6.95;;;9.40;99.90;;;;;;5022705;28;20474;-79
2021/10/24 10:10:44;;;;;;;9.48;6.80;;;9.50;99.90;;;;;;5020305;28;20048;-78
2021/10/24 10:13:12;;;;;;;11.07;7.05;;;9.50;99.90;;;;;;5022735;28;20124;-80
2021/10/24 10:15:43;;;;;;;11.85;7.70;;;9.50;99.90;;;;;;5025942;28;20022;-80
2021/10/24 10:18:09;;;;;;;;;;;9.60;99.90;;;;;;5026722;28;20018;-78
2021/10/24 10:20:46;;;;;;;12.80;6.18;;;9.70;99.90;;;;;;5023155;28;19928;-78
2021/10/24 10:23:13;;;;;;;9.88;6.70;;;9.70;99.90;;;;;;5019800;28;20021;-79
2021/10/24 10:25:40;;;;;;;7.93;7.13;;;9.80;99.90;;;;;;5028011;28;20018;-77
2021/10/24 10:28:35;;;;;;;10.95;6.97;;;9.90;99.90;;;;;;5023509;28;20017;-77
2021/10/24 10:31:14;;;;;;;9.43;6.90;;;9.90;99.90;;;;;;5027596;28;20068;-79
2021/10/24 10:33:41;;;;;;;13.00;6.97;;;10.00;99.90;;;;;;5030511;28;20050;-77
2021/10/24 10:36:08;;;;;;;9.05;5.60;;;10.00;99.90;;;;;;5032846;28;20079;-80
2021/10/24 10:38:41;;;;;;;6.57;5.93;;;10.10;99.90;;;;;;5034124;28;20017;-80
2021/10/24 10:41:14;;;;;;;8.57;6.88;;;10.10;99.90;;;;;;5034953;28;20171;-79
2021/10/24 10:44:00;;;;;;;9.77;6.28;;;10.20;99.90;;;;;;5035500;28;20021;-79
2021/10/24 10:46:29;;;;;;;11.52;6.40;;;10.30;99.90;;;;;;5035155;28;20351;-79
2021/10/24 10:48:55;;;;;;;9.50;6.28;;;10.30;99.90;;;;;;5035399;28;20473;-79
2021/10/24 10:51:28;;;;;;;8.02;6.03;;;10.30;99.90;;;;;;5034408;28;20037;-80
2021/10/24 10:53:59;;;;;;;11.77;6.43;;;10.40;99.90;;;;;;5028297;28;20474;-78
2021/10/24 10:56:29;;;;;;;8.27;6.32;;;10.40;99.90;;;;;;5027516;28;20033;-79
2021/10/24 10:58:57;;;;;;;7.03;6.28;;;10.50;99.90;;;;;;5032876;28;20028;-78
2021/10/24 11:01:26;;;;;;;7.65;5.90;;;11.40;99.90;;;;;;5033074;28;20026;-79
2021/10/24 11:04:08;;;;;;;8.95;7.07;;;10.60;99.90;;;;;;5033423;28;20033;-78
2021/10/24 11:06:33;;;;;;;8.07;7.25;;;10.70;99.90;;;;;;5032947;28;20044;-79
2021/10/24 11:09:11;;;;;;;9.80;6.28;;;10.70;99.90;;;;;;5033133;28;20021;-79
2021/10/24 11:11:45;;;;;;;10.70;6.82;;;10.80;99.90;;;;;;5032676;28;20392;-80
2021/10/24 11:14:11;;;;;;;11.13;6.93;;;10.90;99.90;;;;;;5033362;28;20025;-80
2021/10/24 11:16:51;;;;;;;10.15;6.82;;;10.90;99.90;;;;;;5034731;28;20032;-80
2021/10/24 11:19:26;;;;;;;12.65;6.53;;;11.10;99.90;;;;;;5034406;28;20101;-79
2021/10/24 11:22:01;;;;;;;9.18;7.13;;;11.10;99.90;;;;;;5035076;28;20029;-79
2021/10/24 11:24:46;;;;;;;10.88;6.90;;;11.20;99.90;;;;;;5028148;28;20482;-79
2021/10/24 11:27:19;;;;;;;7.88;7.03;;;11.20;99.90;;;;;;5028148;28;20049;-79
2021/10/24 11:29:51;;;;;;;9.50;6.60;;;11.30;99.90;;;;;;5034295;28;20079;-78
2021/10/24 11:32:34;;;;;;;14.20;7.70;;;11.30;99.90;;;;;;5033839;28;20053;-80
2021/10/24 11:35:09;;;;;;;11.48;6.60;;;11.40;99.90;;;;;;5025793;28;20026;-79
2021/10/24 11:37:48;;;;;;;7.03;6.43;;;11.40;99.90;;;;;;5030059;28;20060;-78
2021/10/24 11:40:18;;;;;;;11.57;7.07;;;11.40;99.90;;;;;;5024260;28;20030;-79
2021/10/24 11:43:07;;;;;;;7.80;6.85;;;11.40;99.90;;;;;;5028221;28;20029;-79
2021/10/24 11:45:37;;;;;;;7.93;6.63;;;11.60;99.90;;;;;;5025777;28;20124;-80
2021/10/24 11:48:06;;;;;;;9.20;7.38;;;11.60;99.90;;;;;;5034020;28;20370;-78
2021/10/24 11:50:47;;;;;;;12.35;6.93;;;11.60;99.90;;;;;;5034832;28;20501;-80
2021/10/24 11:53:23;;;;;;;;;;;11.70;99.90;;;;;;5037337;28;20021;-79
2021/10/24 11:55:53;;;;;;;7.95;6.55;;;11.70;99.90;;;;;;5029602;28;19905;-79
2021/10/24 12:01:06;;;;;;;7.60;6.75;;;11.80;99.90;;;;;;5031296;28;20426;-79
2021/10/24 12:03:34;;;;;;;8.60;6.60;;;11.90;99.90;;;;;;5033344;28;20025;-78
2021/10/24 12:06:01;;;;;;;7.50;6.80;;;12.00;99.90;;;;;;5032413;28;20299;-79
2021/10/24 12:09:03;;;;;;;9.40;6.40;;;12.00;99.90;;;;;;5031617;28;20052;-78
2021/10/24 12:11:46;;;;;;;13.13;6.80;;;12.10;99.90;;;;;;5019573;28;20133;-78
2021/10/24 12:14:13;;;;;;;7.00;6.18;;;12.20;99.90;;;;;;5022263;28;20057;-76
2021/10/24 12:16:41;;;;;;;7.18;5.95;;;12.20;99.90;;;;;;5032006;28;20026;-84
2021/10/24 12:19:15;;;;;;;7.63;5.75;;;12.30;99.90;;;;;;5032770;28;20350;-80
2021/10/24 12:21:55;;;;;;;6.40;5.32;;;12.30;99.90;;;;;;5033536;28;20025;-79
2021/10/24 12:24:23;;;;;;;11.00;6.32;;;12.40;99.90;;;;;;5032884;28;20529;-77
2021/10/24 12:27:01;;;;;;;7.65;6.40;;;12.40;99.90;;;;;;5032293;28;20057;-79
2021/10/24 12:29:26;;;;;;;14.82;7.30;;;12.50;99.90;;;;;;5030677;28;20478;-79
2021/10/24 12:32:10;;;;;;;8.07;5.93;;;12.50;99.90;;;;;;5031510;28;20056;-78
2021/10/24 12:34:37;;;;;;;7.57;6.38;;;12.60;99.90;;;;;;5016982;28;20364;-78
2021/10/24 12:37:14;;;;;;;6.50;5.85;;;12.70;99.90;;;;;;5031042;28;20123;-78
2021/10/24 12:39:40;;;;;;;9.95;6.35;;;12.80;99.90;;;;;;5026453;28;20482;-77
2021/10/24 12:42:17;;;;;;;15.38;7.78;;;12.80;99.90;;;;;;5022827;28;20037;-79
2021/10/24 12:44:48;;;;;;;6.57;5.90;;;12.90;99.90;;;;;;5033149;28;20527;-77
2021/10/24 12:47:16;;;;;;;6.20;5.45;;;12.90;99.90;;;;;;5032658;28;20037;-78
2021/10/24 12:49:56;;;;;;;8.32;6.53;;;13.00;99.90;;;;;;5031177;28;20033;-78